Big Lake, AK

11:48 AM AKST ar Rhagfyr 28, 2014 (GMT -0900)
Burkeshore Drive on Big Lake | Change Station
CLOSE
Current Station
Personal Weather Stations
Location: Big Lake, AK
Elevation: 154 ft
Nearby Weather Stations

Elev 154 ft 61.54 °N, 149.85 °W | Updated 8 minutes ago

Clear
Clir
19.1 °F
Feels Like 19 °F
N
0.0
Gwynt Cyfnewidiol Gwynt from Gorllewin
Gusts 4.0 mph

Heddiw
High -- | Low -- °F
--% Chance of Precip.
Yesterday
High -- | Low -- °F
Precip. -- mod
10:18 AM 3:43 PM
Waxing Crescent, 51% visible
Gwasgedd 30.45 mod
Gwelededd 10.0 Milltiroedd
Clouds Clir
Oerfel Gwynt 19 °F
Gwlithbwynt 17 °F
Lleithder 90%
Rainfall 0.00 mod
Snow Depth Not available.
UV 0 out of 12
Pollen Not available.
Air Quality Not available.
Flu Activity Not available.
METAR PAWS 282036Z AUTO 00000KT 10SM CLR M09/M12 A3045 RMK AO1

More Conditions Fewer Conditions

Gwasgedd 30.45 mod
Gwelededd 10.0 Milltiroedd
Clouds Clir
Oerfel Gwynt 19 °F
Gwlithbwynt 17 °F
Lleithder 90%
Rainfall 0.00 mod
Snow Depth Not available.
UV 0 out of 12
Pollen Not available.
Air Quality Not available.
Flu Activity Not available.
METAR PAWS 282036Z AUTO 00000KT 10SM CLR M09/M12 A3045 RMK AO1

More Conditions Fewer Conditions

10-Day Weather Forecast

Almanac

Astronomy

Dec. 28, 2014 Rise Set
Actual Time
Civil Twilight
Nautical Twilight
Astronomical Twilight
Moon
Length Of Visible Light
Length of Day
Tomorrow will be .
, % of the Moon is Illuminated

Today's Extremes

State Highs State Lows

Community

WunderPhotos

Upload Photos

1,781,414 photos uploaded!

WunderBlogs® & News

Nearby

Air Quality

  Air Quality AQ Index Pollutant
Not available.

Snow Depth

Station Depth Elevation

Earthquake Activity

City Distance Mag. Time & Date
Minimum magnitude displayed is 2.5.

Coastal Water Temperatures

Lle Tymheredd

Nearby Weather Stations